createdAt,value
2023-05-16T00:01:47.409Z,78.60
2023-05-16T00:04:17.743Z,78.80
2023-05-16T00:06:45.882Z,79.00
2023-05-16T00:09:13.983Z,78.60
2023-05-16T00:11:42.174Z,78.90
2023-05-16T00:14:10.309Z,78.90
2023-05-16T00:16:38.419Z,78.60
2023-05-16T00:19:06.676Z,78.50
2023-05-16T00:21:36.892Z,78.50
2023-05-16T00:24:06.250Z,78.80
2023-05-16T00:26:34.390Z,78.90
2023-05-16T00:29:02.527Z,78.90
2023-05-16T00:31:30.776Z,79.10
2023-05-16T00:33:58.906Z,78.90
2023-05-16T00:36:27.382Z,78.70
2023-05-16T00:38:56.991Z,78.60
2023-05-16T00:41:26.213Z,78.90
2023-05-16T00:43:54.506Z,78.90
2023-05-16T00:46:22.692Z,79.10
2023-05-16T00:48:50.993Z,79.50
2023-05-16T00:51:19.476Z,79.50
2023-05-16T00:53:47.653Z,79.20
2023-05-16T00:56:18.767Z,78.90
2023-05-16T00:58:47.204Z,78.90
2023-05-16T01:01:16.602Z,78.70
2023-05-16T01:03:46.069Z,78.90
2023-05-16T01:06:14.475Z,79.10
2023-05-16T01:08:42.763Z,79.40
2023-05-16T01:11:26.268Z,79.80
2023-05-16T01:13:59.438Z,80.90
2023-05-16T01:16:35.544Z,80.40
2023-05-16T01:19:12.441Z,79.70
2023-05-16T01:21:51.246Z,79.90
2023-05-16T01:24:28.099Z,80.30
2023-05-16T01:27:00.157Z,80.30
2023-05-16T01:29:28.704Z,79.80
2023-05-16T01:31:58.397Z,79.10
2023-05-16T01:34:26.907Z,78.70
2023-05-16T01:37:06.023Z,78.70
2023-05-16T01:39:42.077Z,79.50
2023-05-16T01:42:15.475Z,79.60
2023-05-16T01:44:49.069Z,79.90
2023-05-16T01:47:18.709Z,79.80
2023-05-16T01:49:52.608Z,79.80
2023-05-16T01:52:27.168Z,80.20
2023-05-16T01:54:58.983Z,80.00
2023-05-16T01:57:30.299Z,80.00
2023-05-16T01:59:59.830Z,80.10
2023-05-16T02:02:27.963Z,79.90
2023-05-16T02:04:56.102Z,79.80
2023-05-16T02:07:24.567Z,79.80
2023-05-16T02:09:52.684Z,80.00
2023-05-16T02:12:20.788Z,80.20
2023-05-16T02:14:50.260Z,80.30
2023-05-16T02:17:18.310Z,80.60
2023-05-16T02:19:46.551Z,80.40
2023-05-16T02:22:14.594Z,80.60
2023-05-16T02:24:42.661Z,80.80
2023-05-16T02:27:10.866Z,80.90
2023-05-16T02:29:38.977Z,80.90
2023-05-16T02:32:09.182Z,80.90
2023-05-16T02:34:37.266Z,81.20
2023-05-16T02:37:05.938Z,81.00
2023-05-16T02:39:34.011Z,81.10
2023-05-16T02:42:02.085Z,81.20
2023-05-16T02:44:30.129Z,81.20
2023-05-16T02:46:58.185Z,81.20
2023-05-16T02:49:27.638Z,81.20
2023-05-16T02:51:55.675Z,81.40
2023-05-16T02:54:23.790Z,81.30
2023-05-16T02:56:51.846Z,81.20
2023-05-16T02:59:20.479Z,81.20
2023-05-16T03:01:48.556Z,81.10
2023-05-16T03:04:16.759Z,80.90
2023-05-16T03:06:46.740Z,80.60
2023-05-16T03:09:14.854Z,80.50
2023-05-16T03:11:42.933Z,80.10
2023-05-16T03:14:10.995Z,79.80
2023-05-16T03:16:40.141Z,79.90
2023-05-16T03:19:08.508Z,80.00
2023-05-16T03:21:36.667Z,80.20
2023-05-16T03:24:06.598Z,80.40
2023-05-16T03:26:34.769Z,80.70
2023-05-16T03:29:02.972Z,80.60
2023-05-16T03:31:33.063Z,80.80
2023-05-16T03:34:01.372Z,81.20
2023-05-16T03:36:29.551Z,81.20
2023-05-16T03:38:57.650Z,81.40
2023-05-16T03:41:27.252Z,81.40
2023-05-16T03:43:55.404Z,81.60
2023-05-16T03:46:23.808Z,81.60
2023-05-16T03:48:52.002Z,81.60
2023-05-16T03:51:20.119Z,81.60
2023-05-16T03:53:48.228Z,81.50
2023-05-16T03:56:16.318Z,81.60
2023-05-16T03:58:45.942Z,81.50
2023-05-16T04:01:14.037Z,81.90
2023-05-16T04:03:42.116Z,81.90
2023-05-16T04:06:10.221Z,81.90
2023-05-16T04:08:39.758Z,82.00
2023-05-16T04:11:07.935Z,81.90
2023-05-16T04:13:36.042Z,81.80
2023-05-16T04:16:06.036Z,81.70
2023-05-16T04:18:34.175Z,82.00
2023-05-16T04:21:04.187Z,82.10
2023-05-16T04:23:32.332Z,82.00
2023-05-16T04:26:01.843Z,82.10
2023-05-16T04:28:30.331Z,82.10
2023-05-16T04:30:58.404Z,82.00
2023-05-16T04:33:27.908Z,81.80
2023-05-16T04:35:58.493Z,81.90
2023-05-16T04:38:26.640Z,81.70
2023-05-16T04:40:54.757Z,81.50
2023-05-16T04:43:22.878Z,81.50
2023-05-16T04:45:50.937Z,81.30
2023-05-16T04:48:19.060Z,81.40
2023-05-16T04:50:48.517Z,81.30
2023-05-16T04:53:16.615Z,81.50
2023-05-16T04:55:44.659Z,81.30
2023-05-16T04:58:12.727Z,81.30
2023-05-16T05:00:40.822Z,81.20
2023-05-16T05:03:09.082Z,81.10
2023-05-16T05:05:37.462Z,81.20
2023-05-16T05:08:07.502Z,81.00
2023-05-16T05:10:35.602Z,81.20
2023-05-16T05:13:03.948Z,80.90
2023-05-16T05:15:32.123Z,80.90
2023-05-16T05:18:00.401Z,81.00
2023-05-16T05:20:28.708Z,80.80
2023-05-16T05:22:56.831Z,80.80
2023-05-16T05:25:27.773Z,80.60
2023-05-16T05:27:56.172Z,80.40
2023-05-16T05:30:24.298Z,80.30
2023-05-16T05:32:53.384Z,80.40
2023-05-16T05:35:22.331Z,80.40
2023-05-16T05:37:50.392Z,80.50
2023-05-16T05:40:18.473Z,80.70
2023-05-16T05:42:47.946Z,80.80
2023-05-16T05:45:16.853Z,80.80
2023-05-16T05:47:46.077Z,80.70
2023-05-16T05:50:15.873Z,80.70
2023-05-16T05:52:44.109Z,80.80
2023-05-16T05:55:12.505Z,80.70
2023-05-16T05:57:40.813Z,80.80
2023-05-16T06:00:11.703Z,80.90
2023-05-16T06:02:40.448Z,81.20
2023-05-16T06:05:09.614Z,81.10
2023-05-16T06:07:37.768Z,80.90
2023-05-16T06:10:08.567Z,80.90
2023-05-16T06:12:36.919Z,80.60
2023-05-16T06:15:05.595Z,80.40
2023-05-16T06:17:35.114Z,80.30
2023-05-16T06:20:03.388Z,80.50
2023-05-16T06:22:31.472Z,80.30
2023-05-16T06:24:59.560Z,80.20
2023-05-16T06:27:27.597Z,80.10
2023-05-16T06:29:56.056Z,79.80
2023-05-16T06:32:24.303Z,79.40
2023-05-16T06:34:53.884Z,78.90
2023-05-16T06:37:23.516Z,78.50
2023-05-16T06:39:51.640Z,78.40
2023-05-16T06:42:20.489Z,77.80
2023-05-16T06:44:48.808Z,77.50
2023-05-16T06:47:17.394Z,77.50
2023-05-16T06:49:45.706Z,77.40
2023-05-16T06:52:15.234Z,77.20
2023-05-16T06:54:43.593Z,77.10
2023-05-16T06:57:11.716Z,76.70
2023-05-16T06:59:39.910Z,76.50
2023-05-16T07:02:08.363Z,76.40
2023-05-16T07:04:38.060Z,76.30
2023-05-16T07:07:07.792Z,76.10
2023-05-16T07:09:37.374Z,76.30
2023-05-16T07:12:06.344Z,76.40
2023-05-16T07:14:34.492Z,76.50
2023-05-16T07:17:03.903Z,76.50
2023-05-16T07:19:32.134Z,76.60
2023-05-16T07:22:00.493Z,76.70
2023-05-16T07:24:28.684Z,76.60
2023-05-16T07:26:58.456Z,76.50
2023-05-16T07:29:26.637Z,76.20
2023-05-16T07:31:54.965Z,76.00
2023-05-16T07:34:23.241Z,76.00
2023-05-16T07:36:51.413Z,76.30
2023-05-16T07:39:19.515Z,76.40
2023-05-16T07:41:49.622Z,76.10
2023-05-16T07:44:19.130Z,75.80
2023-05-16T07:46:47.291Z,76.00
2023-05-16T07:49:15.444Z,75.90
2023-05-16T07:51:43.618Z,76.10
2023-05-16T07:54:11.809Z,75.60
2023-05-16T07:56:39.932Z,75.40
2023-05-16T07:59:08.334Z,75.40
2023-05-16T08:01:38.420Z,75.00
2023-05-16T08:04:07.188Z,74.00
2023-05-16T08:06:35.634Z,74.00
2023-05-16T08:09:04.058Z,74.20
2023-05-16T08:11:32.456Z,74.70
2023-05-16T08:14:00.597Z,74.50
2023-05-16T08:16:28.750Z,74.70
2023-05-16T08:18:58.350Z,74.30
2023-05-16T08:21:26.876Z,74.10
2023-05-16T08:23:55.885Z,73.90
2023-05-16T08:26:23.968Z,73.60
2023-05-16T08:28:52.076Z,73.20
2023-05-16T08:31:21.282Z,73.10
2023-05-16T08:33:49.545Z,73.20
2023-05-16T08:36:20.070Z,72.80
2023-05-16T08:38:50.714Z,72.20
2023-05-16T08:41:18.979Z,72.00
2023-05-16T08:43:47.163Z,71.60
2023-05-16T08:46:15.412Z,71.70
2023-05-16T08:48:47.327Z,71.60
2023-05-16T08:51:19.928Z,70.80
2023-05-16T08:53:55.431Z,70.60
2023-05-16T08:56:24.800Z,69.80
2023-05-16T08:58:55.343Z,70.40
2023-05-16T09:01:23.906Z,70.30
2023-05-16T09:03:53.041Z,70.50
2023-05-16T09:06:21.582Z,69.00
2023-05-16T09:08:51.134Z,68.70
2023-05-16T09:11:20.110Z,68.30
2023-05-16T09:13:48.340Z,68.00
2023-05-16T09:16:18.711Z,68.60
2023-05-16T09:18:48.595Z,68.00
2023-05-16T09:21:18.007Z,68.20
2023-05-16T09:23:46.535Z,68.10
2023-05-16T09:26:16.535Z,68.30
2023-05-16T09:28:45.094Z,68.50
2023-05-16T09:31:24.943Z,68.30
2023-05-16T09:33:53.223Z,67.60
2023-05-16T09:36:21.404Z,68.10
2023-05-16T09:38:51.173Z,67.90
2023-05-16T09:41:22.516Z,67.90
2023-05-16T09:43:50.670Z,67.10
2023-05-16T09:46:19.924Z,67.30
2023-05-16T09:48:49.140Z,67.30
2023-05-16T09:51:17.415Z,66.70
2023-05-16T09:53:45.617Z,67.30
2023-05-16T09:56:15.240Z,67.00
2023-05-16T09:58:46.552Z,66.20
2023-05-16T10:01:14.803Z,65.70
2023-05-16T10:03:44.408Z,65.40
2023-05-16T10:06:14.456Z,65.10
2023-05-16T10:08:44.237Z,64.10
2023-05-16T10:11:12.904Z,62.80
2023-05-16T10:13:41.884Z,62.20
2023-05-16T10:16:13.499Z,61.20
2023-05-16T10:18:43.745Z,59.80
2023-05-16T10:21:15.686Z,60.50
2023-05-16T10:23:44.789Z,59.80
2023-05-16T10:26:14.849Z,58.90
2023-05-16T10:28:43.660Z,58.60
2023-05-16T10:31:14.692Z,58.40
2023-05-16T10:33:43.480Z,57.80
2023-05-16T10:36:12.940Z,58.00
2023-05-16T10:38:42.310Z,57.60
2023-05-16T10:41:11.203Z,55.80
2023-05-16T10:43:39.713Z,55.60
2023-05-16T10:46:10.724Z,55.10
2023-05-16T10:48:42.283Z,54.10
2023-05-16T10:51:35.572Z,54.30
2023-05-16T10:54:07.892Z,55.20
2023-05-16T10:56:36.377Z,53.30
2023-05-16T10:59:05.941Z,54.50
2023-05-16T11:01:35.635Z,54.00
2023-05-16T11:04:11.082Z,52.70
2023-05-16T11:06:47.656Z,52.00
2023-05-16T11:09:28.696Z,51.50
2023-05-16T11:11:59.685Z,50.70
2023-05-16T11:14:32.130Z,52.30
2023-05-16T11:17:07.686Z,51.00
2023-05-16T11:19:42.729Z,51.10
2023-05-16T11:22:29.730Z,50.40
2023-05-16T11:25:00.856Z,50.80
2023-05-16T11:27:30.909Z,49.50
2023-05-16T11:30:03.796Z,47.80
2023-05-16T11:32:34.963Z,48.20
2023-05-16T11:35:05.183Z,48.60
2023-05-16T11:37:33.456Z,48.50
2023-05-16T11:40:02.301Z,48.10
2023-05-16T11:42:35.215Z,48.50
2023-05-16T11:45:08.144Z,49.20
2023-05-16T11:47:38.323Z,47.70
2023-05-16T11:50:10.007Z,47.40
2023-05-16T11:52:39.895Z,47.50
2023-05-16T11:55:11.491Z,47.50
2023-05-16T11:57:39.956Z,47.70
2023-05-16T12:00:16.299Z,48.10
2023-05-16T12:02:45.076Z,47.30
2023-05-16T12:05:17.151Z,47.50
2023-05-16T12:07:46.187Z,47.10
2023-05-16T12:10:16.012Z,46.60
2023-05-16T12:12:46.083Z,45.30
2023-05-16T12:15:15.502Z,45.60
2023-05-16T12:17:44.176Z,46.10
2023-05-16T12:20:16.732Z,46.10
2023-05-16T12:22:46.128Z,45.60
2023-05-16T12:25:23.970Z,45.20
2023-05-16T12:27:53.756Z,43.40
2023-05-16T12:30:24.612Z,45.80
2023-05-16T12:32:58.534Z,44.90
2023-05-16T12:35:33.232Z,44.40
2023-05-16T12:38:01.650Z,43.70
2023-05-16T12:40:30.624Z,44.30
2023-05-16T12:42:59.332Z,43.00
2023-05-16T12:45:29.018Z,42.80
2023-05-16T12:47:57.192Z,41.00
2023-05-16T12:50:29.758Z,42.50
2023-05-16T12:53:01.929Z,41.60
2023-05-16T12:55:30.101Z,41.60
2023-05-16T12:57:58.883Z,42.40
2023-05-16T13:00:27.380Z,42.60
2023-05-16T13:02:55.841Z,41.00
2023-05-16T13:05:24.522Z,40.90
2023-05-16T13:07:54.482Z,40.20
2023-05-16T13:10:22.952Z,39.00
2023-05-16T13:12:51.087Z,39.80
2023-05-16T13:15:19.424Z,39.40
2023-05-16T13:17:48.541Z,39.60
2023-05-16T13:20:17.374Z,40.10
2023-05-16T13:22:46.711Z,40.10
2023-05-16T13:25:16.638Z,39.60
2023-05-16T13:27:44.755Z,39.50
2023-05-16T13:30:14.361Z,40.00
2023-05-16T13:32:42.520Z,39.50
2023-05-16T13:35:10.755Z,39.60
2023-05-16T13:37:39.696Z,40.90
2023-05-16T13:40:10.495Z,41.40
2023-05-16T13:42:40.522Z,41.50
2023-05-16T13:45:09.953Z,40.50
2023-05-16T13:47:38.150Z,40.00
2023-05-16T13:50:10.111Z,38.60
2023-05-16T13:52:38.826Z,38.20
2023-05-16T13:55:08.030Z,38.40
2023-05-16T13:57:36.363Z,37.90
2023-05-16T14:00:35.433Z,38.40
2023-05-16T14:03:00.565Z,38.50
2023-05-16T14:05:28.939Z,38.50
2023-05-16T14:07:57.339Z,38.00
2023-05-16T14:10:26.751Z,38.40
2023-05-16T14:12:55.130Z,38.80
2023-05-16T14:15:24.601Z,38.20
2023-05-16T14:17:52.805Z,37.50
2023-05-16T14:20:21.047Z,37.70
2023-05-16T14:22:49.244Z,37.40
2023-05-16T14:25:17.560Z,37.90
2023-05-16T14:27:47.132Z,37.00
2023-05-16T14:30:15.383Z,36.90
2023-05-16T14:32:44.917Z,37.30
2023-05-16T14:35:13.070Z,36.60
2023-05-16T14:37:41.457Z,36.60
2023-05-16T14:40:10.374Z,37.00
2023-05-16T14:42:38.577Z,37.30
2023-05-16T14:45:07.722Z,37.30
2023-05-16T14:47:36.333Z,37.00
2023-05-16T14:50:07.133Z,36.80
2023-05-16T14:52:36.058Z,36.40
2023-05-16T14:55:04.248Z,36.60
2023-05-16T14:57:32.768Z,36.20
2023-05-16T15:00:00.931Z,36.30
2023-05-16T15:02:29.087Z,37.20
2023-05-16T15:04:57.374Z,37.00
2023-05-16T15:07:27.266Z,36.70
2023-05-16T15:09:55.787Z,36.20
2023-05-16T15:12:23.892Z,36.60
2023-05-16T15:14:52.048Z,36.70
2023-05-16T15:17:20.315Z,36.70
2023-05-16T15:19:49.139Z,36.00
2023-05-16T15:22:17.304Z,36.20
2023-05-16T15:24:47.000Z,36.50
2023-05-16T15:27:15.151Z,36.80
2023-05-16T15:29:43.236Z,37.30
2023-05-16T15:32:13.718Z,37.60
2023-05-16T15:34:42.029Z,37.90
2023-05-16T15:37:10.294Z,37.80
2023-05-16T15:39:38.482Z,38.30
2023-05-16T15:42:11.201Z,37.90
2023-05-16T15:44:40.552Z,37.60
2023-05-16T15:47:08.856Z,38.70
2023-05-16T15:49:37.024Z,38.40
2023-05-16T15:52:06.128Z,38.70
2023-05-16T15:54:34.364Z,38.60
2023-05-16T15:57:02.505Z,38.70
2023-05-16T15:59:31.977Z,38.80
2023-05-16T16:02:04.112Z,39.00
2023-05-16T16:04:32.550Z,38.80
2023-05-16T16:07:00.874Z,39.60
2023-05-16T16:09:29.033Z,39.80
2023-05-16T16:11:57.377Z,39.80
2023-05-16T16:14:25.968Z,39.70
2023-05-16T16:16:55.471Z,39.80
2023-05-16T16:19:23.972Z,40.20
2023-05-16T16:21:52.187Z,39.90
2023-05-16T16:24:21.220Z,39.80
2023-05-16T16:26:49.326Z,40.00
2023-05-16T16:29:17.525Z,39.30
2023-05-16T16:31:45.738Z,39.60
2023-05-16T16:34:15.340Z,39.60
2023-05-16T16:36:43.453Z,39.70
2023-05-16T16:39:11.572Z,39.50
2023-05-16T16:41:39.803Z,39.20
2023-05-16T16:44:07.936Z,39.50
2023-05-16T16:46:36.276Z,39.40
2023-05-16T16:49:04.479Z,39.20
2023-05-16T16:51:36.001Z,39.20
2023-05-16T16:54:04.167Z,39.60
2023-05-16T16:56:32.325Z,38.60
2023-05-16T16:59:00.418Z,39.10
2023-05-16T17:01:31.869Z,38.70
2023-05-16T17:04:00.746Z,38.20
2023-05-16T17:06:30.111Z,37.90
2023-05-16T17:09:03.387Z,38.10
2023-05-16T17:11:35.894Z,37.50
2023-05-16T17:14:06.135Z,38.00
2023-05-16T17:16:34.545Z,38.00
2023-05-16T17:19:02.725Z,37.90
2023-05-16T17:21:31.435Z,37.70
2023-05-16T17:24:01.024Z,37.80
2023-05-16T17:26:30.194Z,37.80
2023-05-16T17:28:58.717Z,38.30
2023-05-16T17:31:26.892Z,38.00
2023-05-16T17:33:54.985Z,39.00
2023-05-16T17:36:23.078Z,39.70
2023-05-16T17:38:51.172Z,39.30
2023-05-16T17:41:20.841Z,39.40
2023-05-16T17:43:49.065Z,39.30
2023-05-16T17:46:17.181Z,39.80
2023-05-16T17:48:45.426Z,39.80
2023-05-16T17:51:13.535Z,40.00
2023-05-16T17:53:41.666Z,40.10
2023-05-16T17:56:10.268Z,40.20
2023-05-16T17:58:39.749Z,40.60
2023-05-16T18:01:09.282Z,40.70
2023-05-16T18:03:38.610Z,40.70
2023-05-16T18:06:07.198Z,40.50
2023-05-16T18:08:35.429Z,40.50
2023-05-16T18:11:03.577Z,40.50
2023-05-16T18:13:32.846Z,40.70
2023-05-16T18:16:02.336Z,40.90
2023-05-16T18:18:30.661Z,41.10
2023-05-16T18:20:59.596Z,41.20
2023-05-16T18:23:27.731Z,41.50
2023-05-16T18:25:55.809Z,41.80
2023-05-16T18:28:24.108Z,42.00
2023-05-16T18:30:52.397Z,42.40
2023-05-16T18:33:22.087Z,42.80
2023-05-16T18:35:50.207Z,43.00
2023-05-16T18:38:31.307Z,43.30
2023-05-16T18:41:01.038Z,43.60
2023-05-16T18:43:29.214Z,43.80
2023-05-16T18:45:57.793Z,44.20
2023-05-16T18:48:27.396Z,44.60
2023-05-16T18:50:55.936Z,44.70
2023-05-16T18:53:24.265Z,44.90
2023-05-16T18:55:52.439Z,45.00
2023-05-16T18:58:20.631Z,45.00
2023-05-16T19:00:49.272Z,44.90
2023-05-16T19:03:17.541Z,44.90
2023-05-16T19:05:47.530Z,44.90
2023-05-16T19:08:15.859Z,45.00
2023-05-16T19:10:44.048Z,45.10
2023-05-16T19:13:12.226Z,45.20
2023-05-16T19:15:40.520Z,45.20
2023-05-16T19:18:08.794Z,45.30
2023-05-16T19:20:37.191Z,45.40
2023-05-16T19:23:06.737Z,45.70
2023-05-16T19:25:34.985Z,45.80
2023-05-16T19:28:03.395Z,46.00
2023-05-16T19:30:31.566Z,46.20
2023-05-16T19:32:59.704Z,46.50
2023-05-16T19:35:29.009Z,46.70
2023-05-16T19:37:57.426Z,46.90
2023-05-16T19:40:26.913Z,46.90
2023-05-16T19:42:54.998Z,47.20
2023-05-16T19:45:23.294Z,47.30
2023-05-16T19:47:51.691Z,47.30
2023-05-16T19:50:20.478Z,47.40
2023-05-16T19:52:48.667Z,47.60
2023-05-16T19:55:16.827Z,47.60
2023-05-16T19:57:46.719Z,47.80
2023-05-16T20:00:15.994Z,47.90
2023-05-16T20:02:44.204Z,47.90
2023-05-16T20:05:12.720Z,47.90
2023-05-16T20:07:40.908Z,47.90
2023-05-16T20:10:10.300Z,47.90
2023-05-16T20:12:38.836Z,48.00
2023-05-16T20:15:10.957Z,48.10
2023-05-16T20:17:39.792Z,48.20
2023-05-16T20:20:09.746Z,48.30
2023-05-16T20:22:38.953Z,48.30
2023-05-16T20:25:09.166Z,48.40
2023-05-16T20:27:37.827Z,48.50
2023-05-16T20:30:08.695Z,48.60
2023-05-16T20:32:37.119Z,48.60
2023-05-16T20:35:09.114Z,48.60
2023-05-16T20:37:37.336Z,48.70
2023-05-16T20:40:07.163Z,48.80
2023-05-16T20:42:35.383Z,48.80
2023-05-16T20:45:03.589Z,49.00
2023-05-16T20:47:33.121Z,49.00
2023-05-16T20:50:01.311Z,49.20
2023-05-16T20:52:29.480Z,49.20
2023-05-16T20:54:58.338Z,49.40
2023-05-16T20:57:26.453Z,49.60
2023-05-16T20:59:54.588Z,49.80
2023-05-16T21:02:22.759Z,49.90
2023-05-16T21:04:52.297Z,50.00
2023-05-16T21:07:21.512Z,50.00
2023-05-16T21:09:49.645Z,50.10
2023-05-16T21:12:17.781Z,50.30
2023-05-16T21:14:46.677Z,50.40
2023-05-16T21:17:14.873Z,50.50
2023-05-16T21:19:43.079Z,50.60
2023-05-16T21:22:12.659Z,50.80
2023-05-16T21:24:41.695Z,51.00
2023-05-16T21:27:09.992Z,51.10
2023-05-16T21:29:38.152Z,51.20
2023-05-16T21:32:06.776Z,51.20
2023-05-16T21:34:34.943Z,51.40
2023-05-16T21:37:03.045Z,51.50
2023-05-16T21:39:32.651Z,51.70
2023-05-16T21:42:01.346Z,52.00
2023-05-16T21:44:29.443Z,51.90
2023-05-16T21:46:57.570Z,52.20
2023-05-16T21:49:25.767Z,52.40
2023-05-16T21:51:54.021Z,52.50
2023-05-16T21:54:22.165Z,52.70
2023-05-16T21:56:51.638Z,52.80
2023-05-16T21:59:19.755Z,53.10
2023-05-16T22:01:47.894Z,53.10
2023-05-16T22:04:16.105Z,53.30
2023-05-16T22:06:44.288Z,53.40
2023-05-16T22:09:12.866Z,53.60
2023-05-16T22:11:41.278Z,53.60
2023-05-16T22:14:10.814Z,53.80
2023-05-16T22:16:39.135Z,54.20
2023-05-16T22:19:08.957Z,54.20
2023-05-16T22:21:37.431Z,54.40
2023-05-16T22:24:06.062Z,54.50
2023-05-16T22:26:34.160Z,54.60
2023-05-16T22:29:02.238Z,54.50
2023-05-16T22:31:31.719Z,54.80
2023-05-16T22:33:59.877Z,55.20
2023-05-16T22:36:30.466Z,55.20
2023-05-16T22:38:58.562Z,55.70
2023-05-16T22:41:29.046Z,56.00
2023-05-16T22:43:57.478Z,56.20
2023-05-16T22:46:25.749Z,56.30
2023-05-16T22:48:55.302Z,56.50
2023-05-16T22:51:23.413Z,56.80
2023-05-16T22:53:51.521Z,56.80
2023-05-16T22:56:19.613Z,57.00
2023-05-16T22:58:47.677Z,57.10
2023-05-16T23:01:15.932Z,57.20
2023-05-16T23:03:44.125Z,57.30
2023-05-16T23:06:13.657Z,57.50
2023-05-16T23:08:42.742Z,57.90
2023-05-16T23:11:10.815Z,58.00
2023-05-16T23:13:38.965Z,58.20
2023-05-16T23:16:07.422Z,58.40
2023-05-16T23:18:35.757Z,58.70
2023-05-16T23:21:03.957Z,58.90
2023-05-16T23:23:33.793Z,59.00
2023-05-16T23:26:01.959Z,59.20
2023-05-16T23:28:30.075Z,59.20
2023-05-16T23:30:58.176Z,59.40
2023-05-16T23:33:26.323Z,59.40
2023-05-16T23:35:54.446Z,59.50
2023-05-16T23:38:23.009Z,59.90
2023-05-16T23:40:52.720Z,59.90
2023-05-16T23:43:21.107Z,60.30
2023-05-16T23:45:49.213Z,60.30
2023-05-16T23:48:17.351Z,60.20
2023-05-16T23:50:45.540Z,60.20
2023-05-16T23:53:13.653Z,60.40
2023-05-16T23:55:41.751Z,60.40
2023-05-16T23:58:11.227Z,60.50
